Sparks, OK (74869)

7:05 PM CST on March 01, 2015 (GMT -0600)
Chandler Municipal | Change Station
CLOSE
Current Station
Airport
Location: Chandler,
Elevation: 984 ft
Nearby Weather Stations

Elev 984 ft 35.72 °N, 96.82 °W | Updated 10 minutes ago

Overcast
Overcast
32 °F
Feels Like 32 °F
N
0
Wind Variable Wind from North

Today
High -- | Low -- °F
--% Chance of Precip.
Yesterday
High -- | Low -- °F
Precip. -- in
6:57 AM 6:22 PM
Waxing Gibbous, 88% visible
Pressure 30.40 in
Visibility 7.0 miles
Clouds Overcast 2300 ft
Dew Point 32 °F
Humidity 100%
Rainfall 0.00 in
Snow Depth Not available.
UV 0 out of 12
Pollen 6.20 out of 12
Air Quality Not available.
Flu Activity Not available.
METAR KCQB 020055Z AUTO 00000KT 7SM OVC023 00/00 A3040 RMK AO2

More Conditions Fewer Conditions

Pressure 30.40 in
Visibility 7.0 miles
Clouds Overcast 2300 ft
Dew Point 32 °F
Humidity 100%
Rainfall 0.00 in
Snow Depth Not available.
UV 0 out of 12
Pollen 6.20 out of 12
Air Quality Not available.
Flu Activity Not available.
METAR KCQB 020055Z AUTO 00000KT 7SM OVC023 00/00 A3040 RMK AO2

More Conditions Fewer Conditions

10-Day Weather Forecast

Almanac

Astronomy

Mar. 01, 2015 Rise Set
Actual Time
Civil Twilight
Nautical Twilight
Astronomical Twilight
Moon
Length of Visible Light
Length of Day
Tomorrow will be .
, % of the Moon is Illuminated

Today's Extremes

State Highs State Lows

Community

WunderPhotos

Upload Photos

1,801,669 photos uploaded!

WunderBlogs® & News

Nearby

Air Quality

  Air Quality AQ Index Pollutant
Not available.

Snow Depth

Station Depth Elevation

Earthquake Activity

City Distance Mag. Time & Date
Minimum magnitude displayed is 2.5.

Coastal Water Temperatures

Place Temperature

Nearby Weather Stations